createdAt,value
2022-12-09T00:00:13.123Z,3.70
2022-12-09T00:02:40.150Z,3.80
2022-12-09T00:05:06.994Z,3.60
2022-12-09T00:07:35.184Z,3.60
2022-12-09T00:10:02.078Z,3.60
2022-12-09T00:12:28.632Z,3.70
2022-12-09T00:14:55.146Z,3.70
2022-12-09T00:17:21.878Z,3.80
2022-12-09T00:19:48.397Z,3.80
2022-12-09T00:22:14.932Z,3.80
2022-12-09T00:24:41.974Z,3.80
2022-12-09T00:27:08.731Z,3.80
2022-12-09T00:29:35.408Z,3.70
2022-12-09T00:32:02.056Z,3.70
2022-12-09T00:34:28.912Z,3.70
2022-12-09T00:36:55.654Z,3.70
2022-12-09T00:39:22.342Z,3.70
2022-12-09T00:41:49.877Z,3.70
2022-12-09T00:44:16.380Z,3.70
2022-12-09T00:46:42.995Z,3.70
2022-12-09T00:49:10.395Z,3.60
2022-12-09T00:51:36.952Z,3.60
2022-12-09T00:54:03.683Z,3.60
2022-12-09T00:56:31.023Z,3.60
2022-12-09T00:58:58.023Z,3.60
2022-12-09T01:01:24.877Z,3.60
2022-12-09T01:03:51.845Z,3.60
2022-12-09T01:06:19.711Z,3.60
2022-12-09T01:08:46.574Z,3.60
2022-12-09T01:11:16.364Z,3.50
2022-12-09T01:13:42.921Z,3.60
2022-12-09T01:16:29.719Z,3.50
2022-12-09T01:18:59.528Z,3.50
2022-12-09T01:21:27.298Z,3.50
2022-12-09T01:23:53.781Z,3.60
2022-12-09T01:26:20.472Z,3.60
2022-12-09T01:28:51.265Z,3.60
2022-12-09T01:31:19.446Z,3.60
2022-12-09T01:33:46.464Z,3.60
2022-12-09T01:36:17.617Z,3.60
2022-12-09T01:38:44.841Z,3.60
2022-12-09T01:41:11.343Z,3.60
2022-12-09T01:43:39.364Z,3.50
2022-12-09T01:46:06.334Z,3.50
2022-12-09T01:48:34.988Z,3.50
2022-12-09T01:51:04.244Z,3.60
2022-12-09T01:53:33.325Z,3.50
2022-12-09T01:56:03.226Z,3.50
2022-12-09T01:58:29.794Z,3.50
2022-12-09T02:00:56.428Z,3.50
2022-12-09T02:03:23.231Z,3.40
2022-12-09T02:05:49.974Z,3.50
2022-12-09T02:08:17.562Z,3.50
2022-12-09T02:10:47.549Z,3.60
2022-12-09T02:13:19.904Z,3.50
2022-12-09T02:15:49.826Z,3.50
2022-12-09T02:18:35.285Z,3.50
2022-12-09T02:21:09.454Z,3.50
2022-12-09T02:23:41.375Z,3.50
2022-12-09T02:26:16.551Z,3.40
2022-12-09T02:28:52.210Z,3.40
2022-12-09T02:31:37.587Z,3.50
2022-12-09T02:34:13.682Z,3.50
2022-12-09T02:36:44.784Z,3.50
2022-12-09T02:39:11.306Z,3.50
2022-12-09T02:41:39.860Z,3.50
2022-12-09T02:44:12.472Z,3.50
2022-12-09T02:46:40.617Z,3.40
2022-12-09T02:49:07.398Z,3.40
2022-12-09T02:51:35.537Z,3.40
2022-12-09T02:54:07.438Z,3.30
2022-12-09T02:56:34.543Z,3.20
2022-12-09T02:59:01.489Z,3.30
2022-12-09T03:01:36.628Z,3.30
2022-12-09T03:04:05.039Z,3.30
2022-12-09T03:06:36.167Z,3.30
2022-12-09T03:09:07.912Z,3.30
2022-12-09T03:11:35.515Z,3.40
2022-12-09T03:14:17.066Z,3.40
2022-12-09T03:16:46.895Z,3.30
2022-12-09T03:19:20.485Z,3.30
2022-12-09T03:21:48.695Z,3.40
2022-12-09T03:24:17.784Z,3.50
2022-12-09T03:26:45.085Z,3.40
2022-12-09T03:29:16.777Z,3.40
2022-12-09T03:31:44.395Z,3.40
2022-12-09T03:34:13.793Z,3.30
2022-12-09T03:36:40.983Z,3.40
2022-12-09T03:39:10.441Z,3.40
2022-12-09T03:41:38.025Z,3.50
2022-12-09T03:44:08.725Z,3.50
2022-12-09T03:46:35.394Z,3.40
2022-12-09T03:49:02.113Z,3.30
2022-12-09T03:51:36.379Z,3.30
2022-12-09T03:54:06.156Z,3.40
2022-12-09T03:56:34.191Z,3.40
2022-12-09T03:59:01.919Z,3.40
2022-12-09T04:01:29.698Z,3.50
2022-12-09T04:03:57.338Z,3.40
2022-12-09T04:06:24.115Z,3.40
2022-12-09T04:08:50.996Z,3.30
2022-12-09T04:11:17.756Z,3.30
2022-12-09T04:13:44.233Z,3.30
2022-12-09T04:16:10.864Z,3.30
2022-12-09T04:18:37.483Z,3.30
2022-12-09T04:21:08.520Z,3.30
2022-12-09T04:23:40.868Z,3.40
2022-12-09T04:26:13.012Z,3.30
2022-12-09T04:28:39.468Z,3.30
2022-12-09T04:31:10.119Z,3.40
2022-12-09T04:33:36.981Z,3.40
2022-12-09T04:36:07.508Z,3.30
2022-12-09T04:38:34.534Z,3.30
2022-12-09T04:41:01.583Z,3.30
2022-12-09T04:43:28.468Z,3.20
2022-12-09T04:45:59.493Z,3.20
2022-12-09T04:48:26.158Z,3.30
2022-12-09T04:50:53.114Z,3.30
2022-12-09T04:53:19.595Z,3.30
2022-12-09T04:55:46.190Z,3.20
2022-12-09T04:58:13.056Z,3.30
2022-12-09T05:00:39.875Z,3.30
2022-12-09T05:03:06.613Z,3.30
2022-12-09T05:05:33.579Z,3.20
2022-12-09T05:08:00.452Z,3.20
2022-12-09T05:10:27.337Z,2.90
2022-12-09T05:12:53.939Z,2.80
2022-12-09T05:15:20.723Z,2.80
2022-12-09T05:17:47.567Z,2.90
2022-12-09T05:20:14.740Z,2.90
2022-12-09T05:22:41.771Z,3.00
2022-12-09T05:25:08.610Z,3.00
2022-12-09T05:27:35.070Z,2.90
2022-12-09T05:30:01.884Z,2.90
2022-12-09T05:32:30.237Z,2.90
2022-12-09T05:34:57.420Z,2.90
2022-12-09T05:37:24.125Z,2.90
2022-12-09T05:39:50.837Z,3.00
2022-12-09T05:42:17.724Z,3.00
2022-12-09T05:44:44.416Z,3.00
2022-12-09T05:47:11.421Z,2.90
2022-12-09T05:49:39.052Z,2.80
2022-12-09T05:52:06.242Z,2.80
2022-12-09T05:54:33.184Z,2.90
2022-12-09T05:57:01.268Z,2.80
2022-12-09T05:59:28.173Z,2.90
2022-12-09T06:01:55.131Z,2.90
2022-12-09T06:04:21.965Z,2.90
2022-12-09T06:06:48.923Z,2.90
2022-12-09T06:09:16.073Z,2.80
2022-12-09T06:11:43.155Z,2.80
2022-12-09T06:14:10.836Z,2.90
2022-12-09T06:16:38.111Z,2.80
2022-12-09T06:19:05.153Z,2.80
2022-12-09T06:21:31.821Z,2.80
2022-12-09T06:23:58.588Z,2.80
2022-12-09T06:26:26.939Z,2.70
2022-12-09T06:28:54.253Z,2.80
2022-12-09T06:31:21.445Z,2.80
2022-12-09T06:33:57.926Z,2.70
2022-12-09T06:36:26.892Z,2.80
2022-12-09T06:38:53.975Z,2.70
2022-12-09T06:41:20.646Z,2.80
2022-12-09T06:43:47.572Z,2.80
2022-12-09T06:46:15.454Z,2.80
2022-12-09T06:48:42.724Z,2.90
2022-12-09T06:51:09.729Z,2.90
2022-12-09T06:53:36.866Z,2.90
2022-12-09T06:56:11.732Z,2.90
2022-12-09T06:58:39.851Z,2.80
2022-12-09T07:01:08.756Z,2.80
2022-12-09T07:03:35.635Z,2.80
2022-12-09T07:06:03.437Z,2.80
2022-12-09T07:08:30.171Z,2.70
2022-12-09T07:10:57.600Z,2.70
2022-12-09T07:13:25.900Z,2.80
2022-12-09T07:15:52.631Z,2.70
2022-12-09T07:18:20.016Z,2.70
2022-12-09T07:20:47.097Z,2.70
2022-12-09T07:23:13.731Z,2.70
2022-12-09T07:25:40.704Z,2.60
2022-12-09T07:28:07.353Z,2.70
2022-12-09T07:30:36.801Z,2.60
2022-12-09T07:33:03.912Z,2.60
2022-12-09T07:35:30.774Z,2.50
2022-12-09T07:37:57.921Z,2.40
2022-12-09T07:40:24.631Z,2.40
2022-12-09T07:42:56.143Z,2.40
2022-12-09T07:45:25.600Z,2.40
2022-12-09T07:47:52.416Z,2.30
2022-12-09T07:50:19.126Z,2.30
2022-12-09T07:52:45.815Z,2.30
2022-12-09T07:55:12.991Z,2.20
2022-12-09T07:57:40.024Z,2.20
2022-12-09T08:00:07.458Z,2.20
2022-12-09T08:02:34.249Z,2.20
2022-12-09T08:05:02.310Z,2.20
2022-12-09T08:07:29.304Z,2.20
2022-12-09T08:09:56.505Z,2.20
2022-12-09T08:12:23.689Z,2.20
2022-12-09T08:14:50.638Z,2.20
2022-12-09T08:17:18.505Z,2.10
2022-12-09T08:19:45.896Z,2.10
2022-12-09T08:22:12.946Z,2.10
2022-12-09T08:24:39.930Z,2.10
2022-12-09T08:27:06.799Z,2.10
2022-12-09T08:29:33.684Z,2.00
2022-12-09T08:32:00.730Z,1.90
2022-12-09T08:34:27.765Z,2.00
2022-12-09T08:37:00.296Z,2.10
2022-12-09T08:39:28.501Z,2.10
2022-12-09T08:41:55.171Z,2.10
2022-12-09T08:44:22.827Z,2.10
2022-12-09T08:46:50.530Z,2.00
2022-12-09T08:49:19.354Z,2.00
2022-12-09T08:51:46.906Z,2.00
2022-12-09T08:54:13.461Z,2.00
2022-12-09T08:56:40.241Z,2.10
2022-12-09T08:59:06.981Z,2.10
2022-12-09T09:01:35.941Z,2.10
2022-12-09T09:04:10.504Z,2.10
2022-12-09T09:06:38.466Z,2.00
2022-12-09T09:09:06.833Z,2.00
2022-12-09T09:11:34.229Z,2.00
2022-12-09T09:14:02.842Z,1.90
2022-12-09T09:16:29.859Z,1.90
2022-12-09T09:18:56.618Z,1.90
2022-12-09T09:21:24.255Z,2.00
2022-12-09T09:23:51.053Z,1.90
2022-12-09T09:26:19.360Z,2.00
2022-12-09T09:28:46.580Z,2.00
2022-12-09T09:31:15.112Z,2.10
2022-12-09T09:33:42.694Z,2.10
2022-12-09T09:36:12.403Z,2.10
2022-12-09T09:38:39.585Z,2.20
2022-12-09T09:41:10.747Z,2.30
2022-12-09T09:43:38.353Z,2.30
2022-12-09T09:46:05.315Z,2.40
2022-12-09T09:48:33.438Z,2.40
2022-12-09T09:51:05.058Z,2.40
2022-12-09T09:53:32.987Z,2.40
2022-12-09T09:56:06.448Z,2.40
2022-12-09T09:58:43.526Z,2.40
2022-12-09T10:01:14.595Z,2.40
2022-12-09T10:04:03.028Z,2.50
2022-12-09T10:06:41.190Z,2.50
2022-12-09T10:09:19.837Z,2.50
2022-12-09T10:11:59.808Z,2.60
2022-12-09T10:14:27.438Z,2.70
2022-12-09T10:17:01.418Z,2.60
2022-12-09T10:19:31.870Z,2.60
2022-12-09T10:22:08.909Z,2.60
2022-12-09T10:24:40.112Z,2.70
2022-12-09T10:27:25.212Z,2.80
2022-12-09T10:29:55.225Z,2.70
2022-12-09T10:32:24.102Z,2.80
2022-12-09T10:34:51.486Z,2.90
2022-12-09T10:37:27.517Z,2.90
2022-12-09T10:39:58.748Z,3.00
2022-12-09T10:42:44.787Z,3.00
2022-12-09T10:45:12.330Z,2.90
2022-12-09T10:47:39.497Z,3.00
2022-12-09T10:50:07.195Z,3.00
2022-12-09T10:52:45.361Z,3.00
2022-12-09T10:55:22.298Z,3.00
2022-12-09T10:57:49.242Z,2.90
2022-12-09T11:00:26.095Z,2.90
2022-12-09T11:02:55.638Z,3.00
2022-12-09T11:05:23.113Z,3.00
2022-12-09T11:07:51.375Z,3.10
2022-12-09T11:10:20.400Z,3.10
2022-12-09T11:12:50.676Z,3.10
2022-12-09T11:15:28.835Z,3.00
2022-12-09T11:17:57.690Z,3.10
2022-12-09T11:20:26.722Z,3.10
2022-12-09T11:23:05.374Z,3.10
2022-12-09T11:25:34.538Z,3.10
2022-12-09T11:28:03.241Z,3.20
2022-12-09T11:30:32.660Z,3.20
2022-12-09T11:32:59.818Z,3.20
2022-12-09T11:35:30.324Z,3.30
2022-12-09T11:37:58.593Z,3.30
2022-12-09T11:40:26.905Z,3.30
2022-12-09T11:42:54.066Z,3.30
2022-12-09T11:45:28.752Z,3.40
2022-12-09T11:50:49.784Z,3.60
2022-12-09T11:53:23.456Z,3.40
2022-12-09T11:56:07.804Z,3.50
2022-12-09T11:58:43.657Z,3.40
2022-12-09T12:01:17.901Z,3.30
2022-12-09T12:03:47.342Z,3.30
2022-12-09T12:06:19.344Z,3.30
2022-12-09T12:08:51.229Z,3.30
2022-12-09T12:11:25.097Z,3.30
2022-12-09T12:13:54.025Z,3.50
2022-12-09T12:16:24.348Z,3.50
2022-12-09T12:18:58.141Z,3.50
2022-12-09T12:21:40.537Z,3.60
2022-12-09T12:24:17.656Z,3.60
2022-12-09T12:26:59.706Z,3.70
2022-12-09T12:29:32.211Z,3.80
2022-12-09T12:32:04.941Z,3.80
2022-12-09T12:34:39.638Z,3.80
2022-12-09T12:37:17.653Z,3.80
2022-12-09T12:39:50.251Z,3.70
2022-12-09T12:42:31.680Z,3.80
2022-12-09T12:45:20.486Z,4.00
2022-12-09T12:47:55.170Z,4.20
2022-12-09T12:50:36.487Z,4.20
2022-12-09T12:53:02.952Z,4.20
2022-12-09T12:55:48.911Z,4.10
2022-12-09T12:58:19.290Z,4.20
2022-12-09T13:00:56.668Z,4.20
2022-12-09T13:03:31.563Z,4.20
2022-12-09T13:05:58.485Z,4.20
2022-12-09T13:08:43.574Z,4.20
2022-12-09T13:11:14.256Z,4.20
2022-12-09T13:13:46.707Z,4.20
2022-12-09T13:16:16.260Z,4.20
2022-12-09T13:18:42.971Z,4.20
2022-12-09T13:21:09.777Z,4.20
2022-12-09T13:23:51.358Z,4.30
2022-12-09T13:26:50.102Z,4.30
2022-12-09T13:29:35.524Z,4.30
2022-12-09T13:32:01.989Z,4.40
2022-12-09T13:34:35.450Z,4.40
2022-12-09T13:37:01.961Z,4.60
2022-12-09T13:39:40.767Z,4.50
2022-12-09T13:42:46.317Z,4.40
2022-12-09T13:45:16.673Z,4.30
2022-12-09T13:47:43.179Z,4.30
2022-12-09T13:50:24.627Z,4.30
2022-12-09T13:52:52.541Z,4.30
2022-12-09T13:55:21.900Z,4.30
2022-12-09T13:57:56.961Z,4.40
2022-12-09T14:00:23.435Z,4.40
2022-12-09T14:02:59.581Z,4.40
2022-12-09T14:05:27.570Z,4.40
2022-12-09T14:08:02.970Z,4.40
2022-12-09T14:10:40.967Z,4.30
2022-12-09T14:13:21.026Z,4.20
2022-12-09T14:15:48.223Z,4.10
2022-12-09T14:18:32.814Z,4.00
2022-12-09T14:21:17.636Z,3.90
2022-12-09T14:24:03.033Z,3.90
2022-12-09T14:26:33.459Z,3.80
2022-12-09T14:29:00.095Z,3.80
2022-12-09T14:31:47.877Z,3.70
2022-12-09T14:34:23.421Z,3.60
2022-12-09T14:36:54.562Z,3.60
2022-12-09T14:39:25.540Z,3.50
2022-12-09T14:42:03.967Z,3.60
2022-12-09T14:44:42.695Z,3.50
2022-12-09T14:47:18.496Z,3.50
2022-12-09T14:49:49.199Z,3.40
2022-12-09T14:52:22.426Z,3.40
2022-12-09T14:54:49.234Z,3.40
2022-12-09T14:57:20.079Z,3.40
2022-12-09T14:59:49.027Z,3.30
2022-12-09T15:02:26.213Z,3.40
2022-12-09T15:04:53.713Z,3.40
2022-12-09T15:07:21.839Z,3.30
2022-12-09T15:09:49.495Z,3.30
2022-12-09T15:12:16.400Z,3.20
2022-12-09T15:14:44.331Z,3.30
2022-12-09T15:17:16.303Z,3.30
2022-12-09T15:22:31.358Z,3.20
2022-12-09T15:24:58.210Z,3.20
2022-12-09T15:27:25.400Z,3.20
2022-12-09T15:29:52.381Z,3.20
2022-12-09T15:32:29.090Z,3.10
2022-12-09T15:34:55.720Z,3.10
2022-12-09T15:37:24.757Z,3.10
2022-12-09T15:39:57.797Z,3.10
2022-12-09T15:42:27.119Z,3.10
2022-12-09T15:45:09.196Z,3.00
2022-12-09T15:47:38.829Z,3.00
2022-12-09T15:50:08.230Z,3.00
2022-12-09T15:52:38.389Z,2.90
2022-12-09T15:55:06.906Z,3.00
2022-12-09T15:57:34.410Z,2.90
2022-12-09T16:00:00.925Z,2.90
2022-12-09T16:02:29.711Z,2.90
2022-12-09T16:04:58.052Z,2.90
2022-12-09T16:07:25.141Z,2.90
2022-12-09T16:10:03.823Z,2.80
2022-12-09T16:12:32.380Z,2.70
2022-12-09T16:14:59.039Z,2.70
2022-12-09T16:17:27.382Z,2.70
2022-12-09T16:19:53.922Z,2.70
2022-12-09T16:22:25.417Z,2.70
2022-12-09T16:25:14.080Z,2.70
2022-12-09T16:27:43.271Z,2.60
2022-12-09T16:30:12.904Z,2.70
2022-12-09T16:32:40.504Z,2.70
2022-12-09T16:35:09.977Z,2.70
2022-12-09T16:37:37.737Z,2.60
2022-12-09T16:40:24.181Z,2.50
2022-12-09T16:42:52.092Z,2.60
2022-12-09T16:45:32.776Z,2.60
2022-12-09T16:47:59.599Z,2.60
2022-12-09T16:50:28.013Z,2.50
2022-12-09T16:52:54.655Z,2.60
2022-12-09T16:55:22.404Z,2.60
2022-12-09T16:57:49.107Z,2.60
2022-12-09T17:00:16.289Z,2.50
2022-12-09T17:02:45.073Z,2.40
2022-12-09T17:05:11.549Z,2.50
2022-12-09T17:07:37.987Z,2.40
2022-12-09T17:10:04.645Z,2.40
2022-12-09T17:12:31.293Z,2.50
2022-12-09T17:14:57.867Z,2.50
2022-12-09T17:17:24.416Z,2.50
2022-12-09T17:19:50.885Z,2.40
2022-12-09T17:22:17.573Z,2.40
2022-12-09T17:24:44.056Z,2.50
2022-12-09T17:27:10.519Z,2.40
2022-12-09T17:29:37.334Z,2.40
2022-12-09T17:32:04.064Z,2.50
2022-12-09T17:34:30.613Z,2.50
2022-12-09T17:36:58.271Z,2.40
2022-12-09T17:39:24.819Z,2.40
2022-12-09T17:41:51.348Z,2.40
2022-12-09T17:44:17.932Z,2.40
2022-12-09T17:46:44.417Z,2.40
2022-12-09T17:49:10.896Z,2.30
2022-12-09T17:51:37.355Z,2.30
2022-12-09T17:54:04.322Z,2.20
2022-12-09T17:56:30.944Z,2.30
2022-12-09T17:58:59.580Z,2.30
2022-12-09T18:01:26.617Z,2.20
2022-12-09T18:04:00.233Z,2.20
2022-12-09T18:06:34.342Z,2.20
2022-12-09T18:09:02.083Z,2.10
2022-12-09T18:11:28.547Z,2.10
2022-12-09T18:13:55.061Z,2.20
2022-12-09T18:16:21.636Z,2.20
2022-12-09T18:18:48.983Z,2.20
2022-12-09T18:21:16.624Z,2.10
2022-12-09T18:23:43.627Z,2.10
2022-12-09T18:26:11.842Z,2.10
2022-12-09T18:28:38.781Z,2.10
2022-12-09T18:31:09.676Z,2.10
2022-12-09T18:33:37.037Z,2.20
2022-12-09T18:36:07.815Z,2.20
2022-12-09T18:38:34.347Z,2.20
2022-12-09T18:41:00.957Z,2.10
2022-12-09T18:43:30.484Z,2.10
2022-12-09T18:46:04.527Z,2.00
2022-12-09T18:48:31.655Z,2.00
2022-12-09T18:50:58.165Z,2.00
2022-12-09T18:53:24.782Z,2.00
2022-12-09T18:55:51.282Z,1.90
2022-12-09T18:58:19.026Z,1.90
2022-12-09T19:00:53.755Z,1.90
2022-12-09T19:03:20.270Z,1.90
2022-12-09T19:05:46.753Z,1.90
2022-12-09T19:08:13.289Z,1.90
2022-12-09T19:10:40.172Z,1.90
2022-12-09T19:13:06.708Z,1.80
2022-12-09T19:15:33.326Z,1.80
2022-12-09T19:17:59.858Z,1.80
2022-12-09T19:20:26.394Z,1.80
2022-12-09T19:22:52.960Z,1.70
2022-12-09T19:25:22.420Z,1.70
2022-12-09T19:27:48.897Z,1.80
2022-12-09T19:30:15.470Z,1.70
2022-12-09T19:32:57.227Z,1.80
2022-12-09T19:35:26.184Z,1.70
2022-12-09T19:37:56.639Z,1.60
2022-12-09T19:40:26.120Z,1.70
2022-12-09T19:42:52.583Z,1.70
2022-12-09T19:45:19.077Z,1.70
2022-12-09T19:47:46.585Z,1.70
2022-12-09T19:50:13.140Z,1.60
2022-12-09T19:52:39.646Z,1.70
2022-12-09T19:55:06.283Z,1.60
2022-12-09T19:57:32.782Z,1.70
2022-12-09T19:59:59.240Z,1.70
2022-12-09T20:02:25.738Z,1.70
2022-12-09T20:04:52.267Z,1.70
2022-12-09T20:07:19.434Z,1.70
2022-12-09T20:09:46.172Z,1.70
2022-12-09T20:12:12.677Z,1.70
2022-12-09T20:14:39.521Z,1.70
2022-12-09T20:17:06.015Z,1.70
2022-12-09T20:19:32.546Z,1.70
2022-12-09T20:21:59.139Z,1.70
2022-12-09T20:24:26.663Z,1.70
2022-12-09T20:26:53.178Z,1.80
2022-12-09T20:29:19.664Z,1.70
2022-12-09T20:31:46.218Z,1.70
2022-12-09T20:34:14.727Z,1.70
2022-12-09T20:36:41.910Z,1.70
2022-12-09T20:39:12.313Z,1.60
2022-12-09T20:41:39.242Z,1.60
2022-12-09T20:44:05.843Z,1.60
2022-12-09T20:46:33.229Z,1.60
2022-12-09T20:49:00.148Z,1.70
2022-12-09T20:51:27.747Z,1.70
2022-12-09T20:53:54.720Z,1.80
2022-12-09T20:56:22.115Z,1.70
2022-12-09T20:58:49.337Z,1.70
2022-12-09T21:01:17.578Z,1.80
2022-12-09T21:03:44.463Z,1.70
2022-12-09T21:06:11.233Z,1.70
2022-12-09T21:08:37.706Z,1.80
2022-12-09T21:11:05.974Z,1.70
2022-12-09T21:13:35.527Z,1.70
2022-12-09T21:16:09.557Z,1.80
2022-12-09T21:18:36.677Z,1.70
2022-12-09T21:21:03.924Z,1.80
2022-12-09T21:23:34.574Z,1.70
2022-12-09T21:26:08.477Z,1.70
2022-12-09T21:28:35.864Z,1.80
2022-12-09T21:31:07.360Z,1.60
2022-12-09T21:33:34.143Z,1.70
2022-12-09T21:36:00.633Z,1.80
2022-12-09T21:38:27.263Z,1.80
2022-12-09T21:40:53.728Z,1.70
2022-12-09T21:43:20.160Z,1.70
2022-12-09T21:45:46.675Z,1.70
2022-12-09T21:48:13.138Z,1.80
2022-12-09T21:50:39.612Z,1.80
2022-12-09T21:53:06.076Z,1.80
2022-12-09T21:55:33.617Z,1.70
2022-12-09T21:58:00.121Z,1.70
2022-12-09T22:00:26.580Z,1.70
2022-12-09T22:02:53.136Z,1.70
2022-12-09T22:05:19.568Z,1.80
2022-12-09T22:07:48.183Z,1.70
2022-12-09T22:10:14.699Z,1.70
2022-12-09T22:12:41.133Z,1.70
2022-12-09T22:15:10.465Z,1.70
2022-12-09T22:17:37.042Z,1.60
2022-12-09T22:20:48.868Z,1.70
2022-12-09T22:22:52.867Z,1.70
2022-12-09T22:25:19.405Z,1.70
2022-12-09T22:27:45.856Z,1.60
2022-12-09T22:30:12.626Z,1.70
2022-12-09T22:32:42.044Z,1.60
2022-12-09T22:35:10.065Z,1.60
2022-12-09T22:37:43.391Z,1.50
2022-12-09T22:40:11.025Z,1.60
2022-12-09T22:42:37.797Z,1.60
2022-12-09T22:45:05.062Z,1.70
2022-12-09T22:47:31.897Z,1.70
2022-12-09T22:49:58.331Z,1.60
2022-12-09T22:52:24.792Z,1.60
2022-12-09T22:54:51.224Z,1.60
2022-12-09T22:57:17.712Z,1.60
2022-12-09T22:59:44.244Z,1.60
2022-12-09T23:02:10.723Z,1.60
2022-12-09T23:04:37.483Z,1.60
2022-12-09T23:07:03.973Z,1.60
2022-12-09T23:09:30.403Z,1.60
2022-12-09T23:11:56.928Z,1.50
2022-12-09T23:14:23.422Z,1.50
2022-12-09T23:16:49.985Z,1.50
2022-12-09T23:19:16.566Z,1.50
2022-12-09T23:21:43.195Z,1.50
2022-12-09T23:24:11.729Z,1.50
2022-12-09T23:26:39.266Z,1.50
2022-12-09T23:29:07.508Z,1.50
2022-12-09T23:31:35.119Z,1.40
2022-12-09T23:34:02.151Z,1.50
2022-12-09T23:36:30.952Z,1.50
2022-12-09T23:38:58.109Z,1.40
2022-12-09T23:41:24.992Z,1.50
2022-12-09T23:43:51.833Z,1.40
2022-12-09T23:46:19.589Z,1.40
2022-12-09T23:48:46.981Z,1.40
2022-12-09T23:51:17.871Z,1.30
2022-12-09T23:53:45.185Z,1.40
2022-12-09T23:56:15.583Z,1.40
2022-12-09T23:58:42.428Z,1.40
